createdAt,value
2018-09-28T00:01:54.661Z,95.20
2018-09-28T00:04:23.355Z,95.10
2018-09-28T00:06:51.981Z,94.90
2018-09-28T00:09:20.599Z,95.00
2018-09-28T00:11:49.266Z,95.00
2018-09-28T00:14:17.891Z,94.90
2018-09-28T00:16:46.612Z,95.00
2018-09-28T00:19:15.287Z,94.80
2018-09-28T00:21:43.896Z,94.70
2018-09-28T00:24:12.547Z,94.60
2018-09-28T00:26:41.255Z,94.60
2018-09-28T00:29:09.963Z,94.80
2018-09-28T00:31:38.574Z,94.80
2018-09-28T00:34:07.291Z,94.80
2018-09-28T00:36:35.967Z,94.80
2018-09-28T00:39:05.993Z,94.60
2018-09-28T00:41:34.671Z,94.60
2018-09-28T00:44:03.374Z,94.60
2018-09-28T00:46:32.028Z,94.70
2018-09-28T00:49:00.728Z,94.70
2018-09-28T00:51:29.404Z,94.70
2018-09-28T00:53:58.060Z,94.80
2018-09-28T00:56:26.785Z,95.00
2018-09-28T00:58:55.434Z,94.80
2018-09-28T01:01:24.103Z,94.50
2018-09-28T01:03:52.767Z,94.40
2018-09-28T01:06:21.378Z,94.40
2018-09-28T01:08:50.000Z,94.30
2018-09-28T01:11:18.631Z,94.10
2018-09-28T01:13:47.239Z,94.10
2018-09-28T01:16:15.910Z,94.00
2018-09-28T01:18:44.536Z,94.10
2018-09-28T01:21:13.171Z,94.10
2018-09-28T01:23:41.800Z,93.90
2018-09-28T01:26:10.591Z,93.90
2018-09-28T01:28:39.237Z,93.70
2018-09-28T01:31:08.016Z,93.80
2018-09-28T01:33:36.675Z,94.30
2018-09-28T01:36:05.364Z,93.90
2018-09-28T01:38:34.055Z,93.70
2018-09-28T01:41:02.742Z,94.30
2018-09-28T01:43:31.815Z,94.10
2018-09-28T01:46:00.445Z,93.60
2018-09-28T01:48:29.107Z,93.30
2018-09-28T01:50:57.754Z,93.50
2018-09-28T01:53:26.403Z,93.10
2018-09-28T01:55:55.088Z,92.80
2018-09-28T01:58:23.738Z,92.80
2018-09-28T02:00:52.414Z,92.80
2018-09-28T02:03:21.419Z,92.60
2018-09-28T02:05:50.067Z,92.70
2018-09-28T02:08:18.731Z,92.30
2018-09-28T02:10:47.362Z,92.40
2018-09-28T02:13:16.008Z,92.40
2018-09-28T02:15:44.652Z,92.50
2018-09-28T02:18:13.331Z,92.50
2018-09-28T02:20:41.963Z,93.00
2018-09-28T02:23:10.636Z,92.60
2018-09-28T02:25:39.308Z,92.80
2018-09-28T02:28:07.959Z,92.90
2018-09-28T02:30:36.616Z,93.10
2018-09-28T02:33:05.271Z,93.20
2018-09-28T02:35:33.911Z,92.70
2018-09-28T02:38:02.580Z,92.80
2018-09-28T02:40:31.352Z,92.80
2018-09-28T02:43:00.016Z,93.00
2018-09-28T02:45:28.659Z,93.20
2018-09-28T02:47:57.343Z,93.50
2018-09-28T02:50:26.031Z,93.60
2018-09-28T02:52:54.778Z,93.10
2018-09-28T02:55:23.442Z,92.80
2018-09-28T02:57:52.083Z,92.90
2018-09-28T03:00:20.728Z,93.30
2018-09-28T03:02:49.462Z,92.80
2018-09-28T03:05:18.160Z,92.70
2018-09-28T03:07:46.811Z,92.50
2018-09-28T03:10:15.478Z,92.80
2018-09-28T03:12:44.127Z,93.20
2018-09-28T03:15:12.835Z,93.30
2018-09-28T03:17:41.490Z,93.20
2018-09-28T03:20:10.165Z,93.00
2018-09-28T03:22:38.843Z,92.60
2018-09-28T03:25:07.520Z,92.60
2018-09-28T03:27:36.195Z,93.00
2018-09-28T03:30:05.519Z,92.60
2018-09-28T03:32:34.187Z,92.80
2018-09-28T03:35:02.840Z,93.20
2018-09-28T03:37:31.539Z,92.80
2018-09-28T03:40:00.171Z,93.00
2018-09-28T03:42:28.824Z,93.40
2018-09-28T03:44:57.520Z,93.70
2018-09-28T03:47:26.210Z,93.80
2018-09-28T03:49:54.865Z,93.80
2018-09-28T03:52:23.512Z,93.90
2018-09-28T03:54:52.114Z,94.10
2018-09-28T03:57:21.023Z,94.10
2018-09-28T03:59:49.704Z,94.20
2018-09-28T04:02:18.343Z,94.30
2018-09-28T04:04:47.291Z,94.40
2018-09-28T04:07:15.934Z,94.40
2018-09-28T04:09:44.583Z,94.50
2018-09-28T04:12:13.219Z,94.60
2018-09-28T04:14:41.913Z,94.80
2018-09-28T04:17:10.536Z,94.90
2018-09-28T04:19:39.226Z,95.40
2018-09-28T04:22:08.091Z,95.00
2018-09-28T04:24:36.764Z,95.20
2018-09-28T04:27:05.419Z,95.30
2018-09-28T04:29:34.015Z,95.40
2018-09-28T04:32:02.940Z,95.70
2018-09-28T04:34:31.551Z,95.80
2018-09-28T04:37:00.151Z,96.00
2018-09-28T04:39:28.815Z,95.90
2018-09-28T04:41:57.481Z,96.10
2018-09-28T04:44:26.132Z,96.20
2018-09-28T04:46:54.755Z,96.30
2018-09-28T04:49:23.408Z,96.20
2018-09-28T04:51:52.011Z,96.10
2018-09-28T04:54:20.687Z,96.10
2018-09-28T04:56:49.307Z,96.50
2018-09-28T04:59:17.903Z,96.60
2018-09-28T05:01:46.573Z,96.60
2018-09-28T05:04:15.188Z,96.50
2018-09-28T05:06:43.827Z,96.50
2018-09-28T05:09:13.852Z,96.50
2018-09-28T05:11:42.735Z,96.40
2018-09-28T05:14:11.612Z,96.60
2018-09-28T05:16:40.746Z,96.40
2018-09-28T05:19:09.988Z,96.10
2018-09-28T05:21:38.647Z,96.20
2018-09-28T05:24:07.519Z,96.10
2018-09-28T05:26:36.142Z,96.00
2018-09-28T05:29:04.855Z,95.90
2018-09-28T05:31:33.525Z,96.10
2018-09-28T05:34:02.106Z,95.90
2018-09-28T05:36:31.068Z,95.70
2018-09-28T05:38:59.667Z,95.40
2018-09-28T05:41:28.283Z,95.30
2018-09-28T05:43:56.932Z,94.30
2018-09-28T05:46:25.644Z,94.30
2018-09-28T05:48:54.274Z,93.40
2018-09-28T05:51:22.967Z,93.50
2018-09-28T05:53:51.591Z,94.10
2018-09-28T05:56:20.551Z,94.40
2018-09-28T05:58:54.443Z,92.80
2018-09-28T06:01:28.274Z,92.70
2018-09-28T06:04:02.243Z,92.10
2018-09-28T06:06:30.881Z,92.80
2018-09-28T06:08:59.587Z,92.20
2018-09-28T06:11:28.191Z,91.70
2018-09-28T06:13:56.807Z,91.50
2018-09-28T06:16:25.431Z,91.20
2018-09-28T06:18:54.149Z,91.60
2018-09-28T06:21:22.728Z,91.30
2018-09-28T06:23:51.360Z,91.50
2018-09-28T06:26:20.070Z,91.10
2018-09-28T06:28:48.716Z,90.80
2018-09-28T06:31:17.405Z,90.60
2018-09-28T06:33:46.026Z,90.10
2018-09-28T06:36:14.767Z,90.00
2018-09-28T06:38:43.360Z,90.20
2018-09-28T06:41:12.055Z,90.10
2018-09-28T06:43:40.723Z,90.40
2018-09-28T06:46:09.386Z,90.40
2018-09-28T06:48:38.045Z,90.50
2018-09-28T06:51:06.677Z,90.60
2018-09-28T06:53:35.311Z,90.40
2018-09-28T06:56:04.007Z,90.40
2018-09-28T06:58:32.709Z,90.10
2018-09-28T07:01:01.347Z,89.80
2018-09-28T07:03:29.986Z,89.70
2018-09-28T07:05:58.752Z,90.10
2018-09-28T07:08:27.354Z,90.30
2018-09-28T07:10:56.314Z,90.60
2018-09-28T07:13:24.954Z,89.50
2018-09-28T07:15:53.679Z,91.50
2018-09-28T07:18:22.351Z,89.40
2018-09-28T07:20:51.051Z,89.30
2018-09-28T07:23:19.715Z,86.60
2018-09-28T07:25:48.372Z,87.10
2018-09-28T07:28:16.947Z,87.30
2018-09-28T07:30:45.555Z,87.80
2018-09-28T07:33:14.219Z,88.80
2018-09-28T07:35:42.895Z,84.40
2018-09-28T07:38:11.536Z,83.20
2018-09-28T07:40:40.239Z,82.80
2018-09-28T07:43:08.902Z,83.50
2018-09-28T07:45:37.806Z,83.60
2018-09-28T07:48:06.511Z,82.90
2018-09-28T07:50:35.156Z,81.50
2018-09-28T07:53:03.822Z,80.30
2018-09-28T07:55:32.447Z,81.70
2018-09-28T07:58:01.093Z,82.30
2018-09-28T08:00:29.731Z,83.60
2018-09-28T08:02:58.619Z,79.60
2018-09-28T08:05:27.298Z,81.00
2018-09-28T08:07:55.949Z,77.60
2018-09-28T08:10:24.606Z,79.30
2018-09-28T08:12:53.306Z,80.50
2018-09-28T08:15:21.962Z,78.00
2018-09-28T08:17:50.647Z,79.50
2018-09-28T08:20:19.309Z,76.90
2018-09-28T08:22:48.032Z,77.10
2018-09-28T08:25:16.684Z,79.00
2018-09-28T08:27:45.326Z,76.50
2018-09-28T08:30:13.993Z,76.30
2018-09-28T08:32:42.690Z,78.20
2018-09-28T08:35:11.326Z,74.60
2018-09-28T08:37:40.151Z,78.30
2018-09-28T08:40:08.880Z,79.60
2018-09-28T08:42:37.499Z,78.60
2018-09-28T08:45:06.192Z,73.70
2018-09-28T08:47:34.824Z,74.40
2018-09-28T08:50:03.496Z,76.50
2018-09-28T08:52:32.175Z,74.00
2018-09-28T08:55:00.791Z,75.00
2018-09-28T08:57:29.463Z,74.20
2018-09-28T08:59:58.067Z,75.30
2018-09-28T09:02:26.731Z,73.50
2018-09-28T09:04:55.408Z,72.00
2018-09-28T09:07:24.077Z,73.50
2018-09-28T09:09:52.726Z,70.50
2018-09-28T09:12:21.387Z,73.30
2018-09-28T09:14:50.019Z,73.20
2018-09-28T09:17:18.602Z,73.40
2018-09-28T09:19:47.332Z,70.40
2018-09-28T09:22:15.964Z,68.50
2018-09-28T09:24:44.604Z,68.60
2018-09-28T09:27:13.255Z,70.20
2018-09-28T09:29:42.207Z,67.30
2018-09-28T09:32:10.820Z,68.70
2018-09-28T09:34:39.433Z,72.60
2018-09-28T09:37:08.063Z,71.70
2018-09-28T09:39:36.732Z,69.10
2018-09-28T09:42:05.439Z,66.60
2018-09-28T09:44:34.039Z,67.60
2018-09-28T09:47:02.691Z,66.60
2018-09-28T09:49:31.362Z,65.80
2018-09-28T09:51:59.995Z,66.40
2018-09-28T09:54:28.666Z,64.00
2018-09-28T09:56:57.343Z,64.00
2018-09-28T09:59:25.982Z,66.70
2018-09-28T10:01:59.937Z,64.90
2018-09-28T10:04:29.327Z,66.30
2018-09-28T10:06:57.966Z,66.20
2018-09-28T10:09:26.584Z,63.20
2018-09-28T10:11:55.243Z,62.00
2018-09-28T10:14:23.896Z,61.10
2018-09-28T10:16:52.566Z,62.10
2018-09-28T10:19:21.207Z,64.20
2018-09-28T10:21:49.872Z,60.70
2018-09-28T10:24:18.852Z,62.50
2018-09-28T10:26:48.348Z,61.60
2018-09-28T10:29:17.004Z,62.10
2018-09-28T10:31:45.652Z,60.40
2018-09-28T10:34:14.315Z,64.40
2018-09-28T10:36:42.942Z,60.70
2018-09-28T10:39:11.600Z,58.10
2018-09-28T10:41:40.229Z,61.60
2018-09-28T10:44:09.960Z,60.50
2018-09-28T10:46:38.687Z,61.10
2018-09-28T10:49:07.288Z,62.60
2018-09-28T10:51:36.037Z,62.90
2018-09-28T10:54:04.652Z,62.80
2018-09-28T10:56:33.282Z,61.10
2018-09-28T10:59:01.963Z,65.30
2018-09-28T11:01:30.670Z,61.40
2018-09-28T11:03:59.303Z,61.80
2018-09-28T11:06:28.000Z,61.10
2018-09-28T11:08:56.713Z,60.80
2018-09-28T11:11:25.289Z,61.40
2018-09-28T11:13:53.911Z,61.30
2018-09-28T11:16:22.561Z,57.60
2018-09-28T11:18:51.262Z,59.90
2018-09-28T11:21:19.991Z,58.40
2018-09-28T11:23:48.634Z,58.30
2018-09-28T11:26:17.304Z,59.80
2018-09-28T11:28:45.981Z,60.70
2018-09-28T11:31:14.649Z,58.80
2018-09-28T11:33:43.351Z,59.20
2018-09-28T11:36:12.047Z,57.90
2018-09-28T11:38:40.706Z,55.50
2018-09-28T11:41:09.355Z,55.80
2018-09-28T11:43:37.943Z,57.70
2018-09-28T11:46:06.855Z,56.60
2018-09-28T11:48:35.796Z,57.00
2018-09-28T11:51:04.458Z,58.30
2018-09-28T11:53:33.075Z,59.80
2018-09-28T11:56:01.780Z,62.50
2018-09-28T11:58:30.367Z,61.20
2018-09-28T12:00:58.990Z,64.40
2018-09-28T12:03:27.649Z,62.10
2018-09-28T12:05:56.271Z,60.00
2018-09-28T12:08:24.971Z,58.80
2018-09-28T12:10:53.651Z,58.70
2018-09-28T12:13:22.362Z,57.10
2018-09-28T12:15:51.027Z,57.10
2018-09-28T12:18:19.686Z,56.90
2018-09-28T12:20:48.352Z,58.60
2018-09-28T12:23:17.009Z,55.40
2018-09-28T12:25:45.684Z,55.50
2018-09-28T12:28:14.349Z,58.90
2018-09-28T12:30:43.007Z,60.10
2018-09-28T12:33:11.641Z,60.80
2018-09-28T12:35:40.434Z,61.70
2018-09-28T12:38:08.923Z,64.60
2018-09-28T12:40:37.561Z,62.50
2018-09-28T12:43:06.251Z,64.30
2018-09-28T12:45:34.922Z,63.50
2018-09-28T12:48:03.531Z,65.00
2018-09-28T12:50:32.300Z,62.00
2018-09-28T12:53:00.935Z,61.70
2018-09-28T12:55:29.505Z,60.50
2018-09-28T12:57:58.150Z,58.10
2018-09-28T13:00:26.894Z,56.50
2018-09-28T13:02:55.480Z,57.80
2018-09-28T13:05:24.144Z,57.30
2018-09-28T13:07:52.792Z,54.20
2018-09-28T13:10:21.479Z,55.50
2018-09-28T13:12:50.199Z,57.60
2018-09-28T13:15:18.804Z,56.80
2018-09-28T13:17:47.475Z,58.90
2018-09-28T13:20:16.220Z,57.60
2018-09-28T13:22:44.895Z,57.50
2018-09-28T13:25:13.536Z,56.10
2018-09-28T13:27:42.160Z,56.80
2018-09-28T13:30:11.194Z,56.20
2018-09-28T13:32:39.869Z,55.80
2018-09-28T13:35:08.488Z,56.40
2018-09-28T13:37:37.167Z,56.50
2018-09-28T13:40:05.883Z,57.40
2018-09-28T13:42:34.669Z,59.10
2018-09-28T13:45:03.377Z,56.90
2018-09-28T13:47:31.988Z,55.40
2018-09-28T13:50:00.816Z,55.20
2018-09-28T13:52:29.440Z,50.80
2018-09-28T13:54:58.006Z,51.50
2018-09-28T13:57:26.923Z,53.70
2018-09-28T13:59:55.664Z,52.40
2018-09-28T14:02:24.319Z,52.90
2018-09-28T14:04:52.963Z,55.70
2018-09-28T14:07:21.576Z,55.40
2018-09-28T14:09:50.255Z,53.80
2018-09-28T14:12:18.923Z,54.60
2018-09-28T14:14:47.616Z,55.30
2018-09-28T14:17:16.299Z,57.30
2018-09-28T14:19:44.971Z,59.20
2018-09-28T14:22:13.964Z,54.00
2018-09-28T14:24:42.565Z,54.30
2018-09-28T14:27:11.395Z,52.50
2018-09-28T14:29:40.000Z,52.20
2018-09-28T14:32:08.731Z,51.30
2018-09-28T14:34:37.445Z,51.80
2018-09-28T14:37:06.183Z,50.60
2018-09-28T14:39:34.836Z,50.20
2018-09-28T14:42:03.452Z,50.30
2018-09-28T14:44:32.109Z,52.50
2018-09-28T14:47:00.690Z,48.80
2018-09-28T14:49:29.311Z,48.50
2018-09-28T14:51:57.903Z,49.80
2018-09-28T14:54:26.632Z,52.20
2018-09-28T14:56:55.256Z,57.70
2018-09-28T14:59:24.163Z,55.50
2018-09-28T15:01:52.871Z,55.60
2018-09-28T15:04:21.615Z,56.00
2018-09-28T15:06:50.432Z,56.40
2018-09-28T15:09:18.967Z,57.10
2018-09-28T15:11:47.648Z,58.10
2018-09-28T15:14:16.353Z,60.10
2018-09-28T15:16:44.998Z,57.00
2018-09-28T15:19:13.955Z,57.20
2018-09-28T15:21:42.622Z,58.50
2018-09-28T15:24:11.235Z,56.80
2018-09-28T15:26:39.895Z,58.70
2018-09-28T15:29:08.535Z,56.50
2018-09-28T15:31:37.172Z,56.20
2018-09-28T15:34:05.811Z,55.90
2018-09-28T15:36:34.440Z,56.90
2018-09-28T15:39:03.196Z,57.00
2018-09-28T15:41:32.129Z,58.30
2018-09-28T15:44:00.763Z,57.30
2018-09-28T15:46:29.429Z,57.40
2018-09-28T15:48:58.060Z,57.60
2018-09-28T15:51:26.694Z,60.50
2018-09-28T15:53:55.335Z,59.00
2018-09-28T15:56:23.979Z,59.70
2018-09-28T15:58:52.654Z,60.10
2018-09-28T16:01:21.293Z,61.50
2018-09-28T16:03:50.014Z,60.70
2018-09-28T16:06:18.647Z,59.50
2018-09-28T16:08:47.296Z,58.70
2018-09-28T16:11:16.008Z,59.30
2018-09-28T16:13:44.901Z,63.50
2018-09-28T16:16:13.539Z,61.60
2018-09-28T16:18:42.562Z,61.00
2018-09-28T16:21:11.206Z,60.60
2018-09-28T16:23:39.860Z,62.60
2018-09-28T16:26:08.505Z,63.20
2018-09-28T16:28:37.172Z,62.20
2018-09-28T16:31:06.001Z,63.70
2018-09-28T16:33:34.978Z,66.90
2018-09-28T16:36:03.726Z,67.20
2018-09-28T16:38:32.425Z,66.50
2018-09-28T16:41:01.116Z,64.20
2018-09-28T16:43:29.751Z,68.00
2018-09-28T16:45:58.408Z,66.00
2018-09-28T16:48:27.042Z,66.40
2018-09-28T16:50:55.686Z,67.00
2018-09-28T16:53:24.350Z,68.60
2018-09-28T16:55:52.954Z,66.30
2018-09-28T16:58:21.616Z,66.70
2018-09-28T17:00:50.288Z,69.00
2018-09-28T17:03:18.967Z,66.50
2018-09-28T17:05:47.556Z,67.20
2018-09-28T17:08:16.202Z,69.30
2018-09-28T17:10:44.849Z,71.00
2018-09-28T17:13:13.465Z,70.60
2018-09-28T17:15:42.486Z,72.00
2018-09-28T17:18:11.110Z,72.10
2018-09-28T17:20:39.728Z,71.80
2018-09-28T17:23:08.439Z,72.10
2018-09-28T17:25:37.086Z,72.10
2018-09-28T17:28:05.723Z,74.10
2018-09-28T17:30:34.433Z,74.00
2018-09-28T17:33:03.020Z,74.70
2018-09-28T17:35:31.644Z,74.90
2018-09-28T17:38:00.344Z,75.00
2018-09-28T17:40:29.020Z,75.40
2018-09-28T17:42:57.669Z,76.00
2018-09-28T17:45:26.283Z,75.60
2018-09-28T17:47:54.976Z,75.10
2018-09-28T17:50:23.620Z,77.10
2018-09-28T17:52:52.260Z,76.40
2018-09-28T17:55:21.147Z,76.50
2018-09-28T17:57:49.776Z,76.20
2018-09-28T18:00:18.512Z,78.80
2018-09-28T18:02:47.207Z,77.20
2018-09-28T18:05:15.847Z,78.00
2018-09-28T18:07:44.514Z,79.50
2018-09-28T18:10:13.159Z,80.90
2018-09-28T18:12:41.832Z,82.30
2018-09-28T18:15:10.524Z,81.80
2018-09-28T18:17:39.518Z,81.40
2018-09-28T18:20:08.172Z,81.90
2018-09-28T18:22:36.887Z,82.90
2018-09-28T18:25:05.604Z,82.70
2018-09-28T18:27:34.252Z,84.30
2018-09-28T18:30:02.904Z,82.80
2018-09-28T18:32:31.495Z,83.90
2018-09-28T18:35:00.183Z,82.10
2018-09-28T18:37:28.793Z,82.50
2018-09-28T18:39:57.432Z,83.20
2018-09-28T18:42:26.163Z,84.30
2018-09-28T18:44:54.780Z,85.10
2018-09-28T18:47:23.428Z,85.60
2018-09-28T18:49:52.167Z,85.50
2018-09-28T18:52:20.820Z,85.10
2018-09-28T18:54:49.512Z,86.10
2018-09-28T18:57:18.171Z,84.70
2018-09-28T18:59:47.380Z,86.20
2018-09-28T19:02:16.052Z,87.10
2018-09-28T19:04:44.718Z,87.30
2018-09-28T19:07:13.383Z,87.70
2018-09-28T19:09:42.051Z,87.50
2018-09-28T19:12:10.698Z,87.60
2018-09-28T19:14:39.335Z,87.80
2018-09-28T19:17:08.015Z,87.60
2018-09-28T19:19:36.687Z,88.00
2018-09-28T19:22:05.329Z,88.40
2018-09-28T19:24:34.114Z,88.00
2018-09-28T19:27:02.727Z,88.90
2018-09-28T19:29:31.372Z,88.70
2018-09-28T19:32:00.053Z,88.80
2018-09-28T19:34:28.716Z,89.00
2018-09-28T19:36:57.395Z,89.30
2018-09-28T19:39:26.076Z,89.60
2018-09-28T19:41:54.797Z,89.90
2018-09-28T19:44:23.452Z,90.10
2018-09-28T19:46:52.086Z,90.40
2018-09-28T19:49:20.764Z,90.90
2018-09-28T19:51:49.383Z,90.80
2018-09-28T19:54:17.980Z,90.90
2018-09-28T19:56:46.647Z,91.10
2018-09-28T19:59:15.386Z,91.20
2018-09-28T20:01:43.971Z,91.10
2018-09-28T20:04:12.563Z,91.10
2018-09-28T20:06:41.189Z,91.20
2018-09-28T20:09:11.099Z,91.30
2018-09-28T20:11:39.932Z,91.20
2018-09-28T20:14:08.825Z,91.30
2018-09-28T20:16:37.411Z,91.30
2018-09-28T20:19:06.261Z,91.40
2018-09-28T20:21:34.916Z,91.60
2018-09-28T20:24:03.667Z,91.60
2018-09-28T20:26:32.266Z,91.70
2018-09-28T20:29:00.887Z,91.70
2018-09-28T20:31:29.522Z,91.80
2018-09-28T20:33:58.195Z,91.90
2018-09-28T20:36:26.831Z,92.00
2018-09-28T20:38:55.456Z,92.00
2018-09-28T20:41:24.176Z,92.60
2018-09-28T20:43:52.891Z,92.30
2018-09-28T20:46:21.571Z,92.30
2018-09-28T20:48:50.258Z,92.50
2018-09-28T20:51:18.852Z,92.30
2018-09-28T20:53:47.848Z,92.20
2018-09-28T20:56:16.491Z,92.30
2018-09-28T20:58:45.130Z,92.30
2018-09-28T21:01:13.749Z,92.30
2018-09-28T21:03:42.663Z,92.40
2018-09-28T21:06:11.296Z,92.50
2018-09-28T21:08:39.895Z,92.60
2018-09-28T21:11:08.614Z,92.50
2018-09-28T21:13:37.267Z,92.40
2018-09-28T21:16:05.972Z,92.50
2018-09-28T21:18:34.614Z,92.70
2018-09-28T21:21:03.222Z,92.70
2018-09-28T21:23:31.997Z,92.50
2018-09-28T21:26:00.663Z,92.50
2018-09-28T21:28:29.308Z,92.60
2018-09-28T21:30:58.004Z,92.60
2018-09-28T21:33:27.006Z,92.60
2018-09-28T21:35:55.726Z,92.60
2018-09-28T21:38:24.486Z,92.60
2018-09-28T21:40:53.144Z,92.50
2018-09-28T21:43:21.772Z,92.60
2018-09-28T21:45:50.396Z,92.60
2018-09-28T21:48:19.008Z,92.50
2018-09-28T21:50:47.797Z,92.40
2018-09-28T21:53:16.436Z,92.30
2018-09-28T21:55:45.080Z,92.30
2018-09-28T21:58:13.752Z,92.20
2018-09-28T22:00:42.400Z,92.30
2018-09-28T22:03:11.128Z,92.50
2018-09-28T22:05:39.776Z,92.40
2018-09-28T22:08:08.493Z,92.50
2018-09-28T22:10:37.131Z,92.30
2018-09-28T22:13:05.783Z,92.30
2018-09-28T22:15:34.419Z,92.50
2018-09-28T22:18:03.085Z,92.50
2018-09-28T22:20:32.038Z,92.70
2018-09-28T22:23:00.715Z,92.70
2018-09-28T22:25:29.384Z,92.60
2018-09-28T22:27:58.055Z,92.60
2018-09-28T22:30:26.721Z,92.50
2018-09-28T22:32:55.343Z,92.60
2018-09-28T22:35:23.978Z,92.70
2018-09-28T22:37:52.654Z,92.80
2018-09-28T22:40:21.395Z,92.80
2018-09-28T22:42:50.073Z,92.80
2018-09-28T22:45:18.724Z,92.90
2018-09-28T22:47:47.428Z,92.90
2018-09-28T22:50:16.071Z,93.00
2018-09-28T22:52:44.955Z,93.10
2018-09-28T22:55:13.602Z,93.20
2018-09-28T22:57:42.258Z,93.10
2018-09-28T23:00:10.910Z,93.20
2018-09-28T23:02:39.561Z,93.00
2018-09-28T23:05:08.231Z,93.20
2018-09-28T23:07:37.272Z,93.10
2018-09-28T23:10:06.058Z,93.10
2018-09-28T23:12:34.705Z,93.10
2018-09-28T23:15:03.629Z,93.20
2018-09-28T23:17:32.228Z,93.30
2018-09-28T23:20:00.935Z,93.20
2018-09-28T23:22:29.618Z,93.10
2018-09-28T23:24:58.301Z,93.20
2018-09-28T23:27:26.970Z,93.20
2018-09-28T23:29:55.621Z,93.30
2018-09-28T23:32:24.308Z,93.30
2018-09-28T23:34:53.428Z,93.30
2018-09-28T23:37:22.079Z,93.70
2018-09-28T23:39:50.732Z,93.40
2018-09-28T23:42:19.675Z,93.20
2018-09-28T23:44:48.339Z,93.30
2018-09-28T23:47:16.988Z,93.30
2018-09-28T23:49:45.703Z,93.40
2018-09-28T23:52:14.335Z,93.30
2018-09-28T23:54:42.974Z,93.30
2018-09-28T23:57:11.651Z,93.30
2018-09-28T23:59:40.290Z,93.40
